Knokke-Heist, Belgium
Current Conditions -  °F | °C
As of 11:55 AM on Monday 22 Dec 2014 (Local Time) from EHFS Reporting Station
Overcast Overcast  
Wind Chill: 52°   Ceiling: 600
Heat Index: 52°   Visibility: 6mi
Dew Point: 50°   Wind: 32mph
Humidity: 94%   Direction: 230°SW
Pressure: 30.03"   Gusts: NA
Location:  51.35°N, 3.27°E
Report Text: EHFS 221055Z AUTO 23028KT 9999 BKN006/// BKN008/// OVC009///11/10 Q1017
Loading
Personal Weather Stations






























Interactive Weather Map New forecast layout! Learn more

10-Day Weather Forecast

Advertisements
Track Severe Weather on mobile